Time;durP1;ratioP1;P1;durP2;ratioP2;P2;SDS_P1;SDS_P2;PMS_P1;PMS_P2;Temp;Humidity;BMP_temperature;BMP_pressure;BME280_temperature;BME280_humidity;BME280_pressure;Samples;Min_cycle;Max_cycle;Signal;HPM_P1;HPM_P2
2023/01/26 00:01:36;;;;;;;0.80;0.80;;;0.40;99.90;;;;;;4977780;28;20560;-94
2023/01/26 00:04:20;;;;;;;0.80;0.80;;;0.30;99.90;;;;;;4980261;28;20400;-94
2023/01/26 00:07:08;;;;;;;;;;;;;;;;;;;;;
2023/01/26 00:10:17;;;;;;;0.80;0.80;;;0.20;99.90;;;;;;4992129;28;20060;-95
2023/01/26 00:12:51;;;;;;;0.80;0.80;;;0.10;99.90;;;;;;5002274;28;20059;-95
2023/01/26 00:15:20;;;;;;;0.90;0.90;;;0.10;99.90;;;;;;5003158;28;20047;-93
2023/01/26 00:17:50;;;;;;;1.60;1.50;;;0.10;99.90;;;;;;5007842;28;20591;-92
2023/01/26 00:20:19;;;;;;;0.80;0.80;;;0.20;99.90;;;;;;5055650;27;20414;-94
2023/01/26 00:23:01;;;;;;;0.90;0.90;;;0.20;99.90;;;;;;5031094;28;20044;-93
2023/01/26 00:25:27;;;;;;;0.80;0.80;;;0.30;99.90;;;;;;5050321;28;20651;-93
2023/01/26 00:28:02;;;;;;;0.80;0.80;;;0.10;99.90;;;;;;5031120;28;20722;-94
2023/01/26 00:30:27;;;;;;;0.80;0.80;;;0.30;99.90;;;;;;5039328;28;20044;-94
2023/01/26 00:32:56;;;;;;;0.80;0.80;;;0.30;99.90;;;;;;5010588;28;20122;-91
2023/01/26 00:35:25;;;;;;;0.80;0.80;;;0.40;99.90;;;;;;5015566;28;20123;-92
2023/01/26 00:37:53;;;;;;;0.80;0.80;;;0.40;99.90;;;;;;4988530;28;20051;-92
2023/01/26 00:40:19;;;;;;;0.80;0.80;;;0.40;99.90;;;;;;5021843;28;20035;-93
2023/01/26 00:42:45;;;;;;;0.80;0.80;;;0.50;99.90;;;;;;5007104;27;20043;-93
2023/01/26 00:45:16;;;;;;;0.80;0.80;;;0.30;99.90;;;;;;5017263;27;20398;-93
2023/01/26 00:47:43;;;;;;;0.80;0.80;;;0.40;99.90;;;;;;5030573;27;20515;-93
2023/01/26 00:50:09;;;;;;;0.80;0.80;;;0.20;99.90;;;;;;5018483;27;20103;-92
2023/01/26 00:52:40;;;;;;;0.80;0.80;;;0.20;99.90;;;;;;5037614;27;20397;-91
2023/01/26 00:55:06;;;;;;;0.80;0.80;;;0.20;99.90;;;;;;5033902;27;20606;-93
2023/01/26 00:57:32;;;;;;;0.80;0.80;;;0.50;99.90;;;;;;5043790;27;20043;-94
2023/01/26 01:00:01;;;;;;;0.80;0.80;;;0.50;99.90;;;;;;5041265;27;20389;-92
2023/01/26 01:02:35;;;;;;;0.80;0.80;;;0.40;99.90;;;;;;5045526;27;20035;-94
2023/01/26 01:05:00;;;;;;;0.80;0.80;;;0.50;99.90;;;;;;5039220;27;20053;-91
2023/01/26 01:07:26;;;;;;;0.80;0.80;;;0.40;99.90;;;;;;5024306;27;20035;-91
2023/01/26 01:09:55;;;;;;;0.80;0.80;;;0.50;99.90;;;;;;5043995;27;20150;-91
2023/01/26 01:12:23;;;;;;;0.80;0.80;;;0.50;99.90;;;;;;5057819;27;20047;-92
2023/01/26 01:14:51;;;;;;;0.80;0.80;;;0.40;99.90;;;;;;5035922;27;20047;-91
2023/01/26 01:17:17;;;;;;;0.80;0.80;;;0.50;99.90;;;;;;5038573;27;20051;-91
2023/01/26 01:19:46;;;;;;;0.80;0.80;;;0.50;99.90;;;;;;5040822;27;20055;-91
2023/01/26 01:22:12;;;;;;;0.80;0.80;;;0.20;99.90;;;;;;5039901;27;20035;-90
2023/01/26 01:24:37;;;;;;;0.80;0.80;;;0.40;99.90;;;;;;5037292;27;20047;-91
2023/01/26 01:27:12;;;;;;;0.80;0.80;;;0.10;99.90;;;;;;5028722;27;20070;-92
2023/01/26 01:29:40;;;;;;;0.80;0.80;;;0.50;99.90;;;;;;5042504;27;20412;-91
2023/01/26 01:32:06;;;;;;;0.80;0.80;;;0.20;99.90;;;;;;5032492;27;20044;-91
2023/01/26 01:34:35;;;;;;;0.80;0.80;;;0.20;99.90;;;;;;5040570;27;20039;-91
2023/01/26 01:37:01;;;;;;;0.80;0.80;;;0.50;99.90;;;;;;5011966;28;20089;-92
2023/01/26 01:39:38;;;;;;;0.82;0.82;;;0.30;99.90;;;;;;5029609;27;20770;-91
2023/01/26 01:42:07;;;;;;;0.80;0.80;;;0.70;99.90;;;;;;5020223;27;20470;-90
2023/01/26 01:44:42;;;;;;;0.80;0.80;;;0.50;99.90;;;;;;5042238;27;20429;-90
2023/01/26 01:47:19;;;;;;;0.80;0.80;;;0.60;99.90;;;;;;5034498;28;20778;-91
2023/01/26 01:49:48;;;;;;;0.80;0.80;;;0.40;99.90;;;;;;5036112;28;20040;-91
2023/01/26 01:52:25;;;;;;;0.82;0.82;;;0.50;99.90;;;;;;5047205;27;20343;-91
2023/01/26 01:55:06;;;;;;;0.80;0.80;;;0.40;99.90;;;;;;5041957;27;20051;-90
2023/01/26 01:58:01;;;;;;;0.80;0.80;;;0.60;99.90;;;;;;5048954;27;20031;-91
2023/01/26 02:00:28;;;;;;;0.80;0.80;;;0.80;99.90;;;;;;5029308;27;20509;-91
2023/01/26 02:03:13;;;;;;;0.80;0.80;;;0.70;99.90;;;;;;5048577;27;20243;-91
2023/01/26 02:05:45;;;;;;;0.80;0.80;;;0.40;99.90;;;;;;5066376;27;20035;-90
2023/01/26 02:08:17;;;;;;;0.80;0.80;;;0.80;99.90;;;;;;5035991;27;20050;-89
2023/01/26 02:10:48;;;;;;;0.80;0.80;;;0.70;99.90;;;;;;5035961;27;20084;-90
2023/01/26 02:13:16;;;;;;;0.80;0.80;;;0.70;99.90;;;;;;5045629;27;20051;-90
2023/01/26 02:15:43;;;;;;;0.80;0.80;;;0.50;99.90;;;;;;5059240;27;20786;-89
2023/01/26 02:18:11;;;;;;;0.80;0.80;;;0.50;99.90;;;;;;5045601;27;20056;-89
2023/01/26 02:20:46;;;;;;;1.38;1.27;;;0.70;99.90;;;;;;5038321;27;20070;-89
2023/01/26 02:23:39;;;;;;;0.80;0.80;;;0.80;99.90;;;;;;5038022;27;20046;-90
2023/01/26 02:26:26;;;;;;;0.90;0.90;;;0.70;99.90;;;;;;5034711;27;20046;-90
2023/01/26 02:28:59;;;;;;;0.80;0.80;;;0.80;99.90;;;;;;5032833;27;20099;-90
2023/01/26 02:31:26;;;;;;;0.80;0.80;;;0.80;99.90;;;;;;5037620;27;20939;-90
2023/01/26 02:33:52;;;;;;;0.70;0.70;;;0.50;99.90;;;;;;5032713;27;20617;-90
2023/01/26 02:36:23;;;;;;;0.80;0.80;;;0.70;99.90;;;;;;5023927;27;20043;-89
2023/01/26 02:39:02;;;;;;;0.73;0.73;;;0.40;99.90;;;;;;5052153;27;20352;-89
2023/01/26 02:44:13;;;;;;;0.80;0.80;;;0.50;99.90;;;;;;5039728;27;20531;-90
2023/01/26 02:46:39;;;;;;;0.80;0.80;;;0.60;99.90;;;;;;5045195;27;20312;-91
2023/01/26 02:51:49;;;;;;;0.70;0.70;;;0.50;99.90;;;;;;5052832;27;20807;-90
2023/01/26 02:57:02;;;;;;;0.80;0.80;;;0.80;99.90;;;;;;5049562;27;20509;-92
2023/01/26 02:59:28;;;;;;;0.80;0.80;;;0.70;99.90;;;;;;5043814;27;20051;-94
2023/01/26 03:01:57;;;;;;;0.80;0.80;;;0.80;99.90;;;;;;5034841;27;20458;-92
2023/01/26 03:04:32;;;;;;;0.80;0.80;;;0.90;99.90;;;;;;5028757;27;20078;-91
2023/01/26 03:06:58;;;;;;;0.80;0.80;;;0.70;99.90;;;;;;5045107;27;20041;-92
2023/01/26 03:09:24;;;;;;;0.80;0.80;;;1.00;99.90;;;;;;5044390;27;20619;-92
2023/01/26 03:11:53;;;;;;;0.80;0.80;;;1.10;99.90;;;;;;5038463;27;20744;-94
2023/01/26 03:14:21;;;;;;;0.80;0.80;;;1.10;99.90;;;;;;5050838;27;20470;-94
2023/01/26 03:16:50;;;;;;;0.80;0.80;;;1.10;99.90;;;;;;5049052;27;20043;-93
2023/01/26 07:25:21;;;;;;;0.80;0.80;;;1.40;99.90;;;;;;5616329;24;20066;-94
2023/01/26 07:35:18;;;;;;;;;;;;;;;;;;;;;
2023/01/26 07:40:44;;;;;;;0.80;0.80;;;1.60;99.90;;;;;;5128528;24;20869;-92
2023/01/26 07:43:14;;;;;;;0.80;0.80;;;1.60;99.90;;;;;;4805833;29;20471;-92
2023/01/26 07:46:04;;;;;;;0.80;0.80;;;1.70;99.90;;;;;;4822348;29;20052;-91
2023/01/26 07:48:57;;;;;;;0.80;0.80;;;1.40;99.90;;;;;;4835544;29;20116;-95
2023/01/26 07:58:41;;;;;;;0.80;0.80;;;1.70;99.90;;;;;;4850476;29;20049;-94
2023/01/26 08:48:33;;;;;;;0.80;0.80;;;1.90;99.90;;;;;;4887335;29;20108;-96
2023/01/26 09:16:19;;;;;;;0.80;0.80;;;2.40;99.90;;;;;;5022383;23;20526;-95
2023/01/26 09:27:03;;;;;;;0.80;0.80;;;2.20;99.90;;;;;;4760606;29;20463;-96
2023/01/26 09:29:39;;;;;;;;;;;;;;;;;;;;;
2023/01/26 09:32:50;;;;;;;0.80;0.80;;;2.30;99.90;;;;;;4777496;29;20173;-95
2023/01/26 09:35:44;;;;;;;0.80;0.80;;;2.20;99.90;;;;;;4809638;29;20041;-93
2023/01/26 09:38:11;;;;;;;0.80;0.80;;;2.20;99.90;;;;;;4805564;29;20757;-93
2023/01/26 09:41:17;;;;;;;0.70;0.70;;;2.20;99.90;;;;;;4804199;29;20055;-93
2023/01/26 09:52:09;;;;;;;0.80;0.80;;;2.40;99.90;;;;;;4772580;29;20151;-94
2023/01/26 10:03:03;;;;;;;0.80;0.80;;;2.70;99.90;;;;;;4735757;30;20115;-96
2023/01/26 11:22:38;;;;;;;0.70;0.70;;;5.60;99.90;;;;;;4873179;29;20116;-91
2023/01/26 11:39:27;;;;;;;0.70;0.70;;;6.90;99.90;;;;;;4791410;29;20126;-95
2023/01/26 11:43:01;;;;;;;0.70;0.70;;;7.10;99.90;;;;;;4730784;30;20055;-93
2023/01/26 11:45:38;;;;;;;0.60;0.60;;;7.30;99.90;;;;;;4719382;30;20171;-92
2023/01/26 11:52:07;;;;;;;0.60;0.60;;;7.50;99.90;;;;;;4789285;29;20178;-91
2023/01/26 11:54:55;;;;;;;0.70;0.70;;;7.60;99.90;;;;;;4747359;29;20057;-92
2023/01/26 11:57:48;;;;;;;0.63;0.63;;;7.90;99.90;;;;;;4806089;29;20070;-92
2023/01/26 12:00:32;;;;;;;0.60;0.60;;;8.10;99.90;;;;;;4819018;29;20060;-91
2023/01/26 12:03:04;;;;;;;0.60;0.60;;;8.00;99.90;;;;;;4809252;29;20331;-92
2023/01/26 12:06:06;;;;;;;0.60;0.60;;;8.10;99.90;;;;;;4797661;29;20128;-90
2023/01/26 12:09:10;;;;;;;0.60;0.60;;;8.20;99.90;;;;;;4758539;29;20072;-93
2023/01/26 12:11:45;;;;;;;0.60;0.60;;;8.10;99.90;;;;;;4796301;29;20056;-91
2023/01/26 12:14:22;;;;;;;0.60;0.60;;;8.20;99.90;;;;;;4802603;29;20128;-92
2023/01/26 12:17:00;;;;;;;0.60;0.60;;;8.30;99.90;;;;;;4810200;29;20619;-93
2023/01/26 12:19:53;;;;;;;0.60;0.60;;;8.50;99.90;;;;;;4807209;29;21087;-89
2023/01/26 12:22:41;;;;;;;0.60;0.60;;;8.30;99.90;;;;;;4821067;29;20049;-90
2023/01/26 12:25:25;;;;;;;0.60;0.60;;;8.40;99.90;;;;;;4814170;29;20067;-91
2023/01/26 12:28:29;;;;;;;0.60;0.60;;;8.50;99.90;;;;;;4820743;29;20075;-92
2023/01/26 12:31:23;;;;;;;0.60;0.60;;;8.60;99.90;;;;;;4824154;29;20175;-90
2023/01/26 12:34:02;;;;;;;0.60;0.60;;;8.60;99.90;;;;;;4809149;29;20064;-94
2023/01/26 12:37:09;;;;;;;0.60;0.60;;;8.50;99.90;;;;;;4802030;29;20072;-90
2023/01/26 12:40:01;;;;;;;0.60;0.60;;;8.40;99.90;;;;;;4818459;29;20683;-90
2023/01/26 12:42:48;;;;;;;0.60;0.60;;;8.40;99.90;;;;;;4796438;29;20120;-90
2023/01/26 12:45:20;;;;;;;0.60;0.60;;;8.40;99.90;;;;;;4809736;29;20040;-91
2023/01/26 12:47:51;;;;;;;0.60;0.60;;;8.30;99.90;;;;;;4803090;29;20048;-90
2023/01/26 12:50:31;;;;;;;0.60;0.60;;;8.40;99.90;;;;;;4791662;29;20052;-92
2023/01/26 12:53:13;;;;;;;0.60;0.60;;;8.40;99.90;;;;;;4784681;29;20495;-91
2023/01/26 12:55:50;;;;;;;0.60;0.60;;;8.30;99.90;;;;;;4790044;29;20049;-90
2023/01/26 12:58:37;;;;;;;0.60;0.60;;;8.30;99.90;;;;;;4787483;29;20512;-88
2023/01/26 13:01:18;;;;;;;0.60;0.60;;;8.40;99.90;;;;;;4799723;29;20045;-89
2023/01/26 13:03:55;;;;;;;0.60;0.60;;;8.60;99.90;;;;;;4789142;29;20089;-89
2023/01/26 13:06:24;;;;;;;0.60;0.60;;;8.60;99.90;;;;;;4795765;29;20105;-88
2023/01/26 13:09:20;;;;;;;0.55;0.55;;;8.60;99.90;;;;;;4798020;29;20057;-91
2023/01/26 13:11:47;;;;;;;0.60;0.60;;;8.50;99.90;;;;;;4791457;29;20087;-90
2023/01/26 13:14:26;;;;;;;0.60;0.60;;;8.50;99.90;;;;;;4811089;29;20582;-88
2023/01/26 13:16:52;;;;;;;0.52;0.52;;;8.50;99.90;;;;;;4786649;29;20038;-88
2023/01/26 13:19:37;;;;;;;0.60;0.60;;;8.40;99.90;;;;;;4794838;29;20088;-90
2023/01/26 13:22:21;;;;;;;0.60;0.60;;;8.40;99.90;;;;;;4815964;29;20057;-89
2023/01/26 13:25:11;;;;;;;0.60;0.60;;;8.30;99.90;;;;;;4779368;29;20052;-90
2023/01/26 13:27:45;;;;;;;0.60;0.60;;;8.20;99.90;;;;;;4774262;29;20641;-92
2023/01/26 13:30:46;;;;;;;0.60;0.60;;;8.10;99.90;;;;;;4804811;29;20056;-91
2023/01/26 13:33:22;;;;;;;0.60;0.60;;;8.10;99.90;;;;;;4815517;29;20769;-88
2023/01/26 13:35:52;;;;;;;0.60;0.60;;;8.10;99.90;;;;;;4800498;29;20084;-89
2023/01/26 13:38:32;;;;;;;0.60;0.60;;;8.30;99.90;;;;;;4797144;29;20104;-89
2023/01/26 13:40:58;;;;;;;0.60;0.60;;;8.40;99.90;;;;;;4808585;29;20259;-91
2023/01/26 13:43:42;;;;;;;0.60;0.60;;;8.50;99.90;;;;;;4775667;29;20759;-87
2023/01/26 13:46:08;;;;;;;;;;;8.60;99.90;;;;;;4801803;29;20808;-88
2023/01/26 13:48:49;;;;;;;0.60;0.60;;;8.70;99.90;;;;;;4801770;29;20051;-89
2023/01/26 13:51:22;;;;;;;0.60;0.60;;;8.90;99.90;;;;;;4804200;29;20583;-90
2023/01/26 13:53:54;;;;;;;0.60;0.60;;;9.00;99.90;;;;;;4794623;29;20884;-88
2023/01/26 13:56:22;;;;;;;0.60;0.60;;;8.90;99.90;;;;;;4792948;29;20881;-89
2023/01/26 13:58:48;;;;;;;0.60;0.60;;;9.00;99.90;;;;;;4813285;29;20785;-90
2023/01/26 14:01:21;;;;;;;0.60;0.60;;;9.00;99.90;;;;;;4793437;29;20056;-90
2023/01/26 14:03:47;;;;;;;0.60;0.60;;;9.00;99.90;;;;;;4772659;29;20796;-91
2023/01/26 14:06:21;;;;;;;0.60;0.60;;;9.10;99.90;;;;;;4795643;29;20092;-91
2023/01/26 14:08:54;;;;;;;;;;;9.10;99.90;;;;;;4799580;29;20151;-88
2023/01/26 14:11:29;;;;;;;0.60;0.60;;;9.20;99.90;;;;;;4794747;29;20669;-90
2023/01/26 14:14:00;;;;;;;0.60;0.60;;;9.30;99.90;;;;;;4796896;29;20121;-89
2023/01/26 14:16:30;;;;;;;0.60;0.60;;;9.10;99.90;;;;;;4813591;29;20474;-88
2023/01/26 14:19:22;;;;;;;0.55;0.55;;;9.00;99.90;;;;;;4805879;29;20080;-89
2023/01/26 14:21:51;;;;;;;0.60;0.60;;;8.80;99.90;;;;;;4798765;29;20858;-89
2023/01/26 14:24:24;;;;;;;0.60;0.60;;;8.80;99.90;;;;;;4809019;29;20338;-89
2023/01/26 14:26:50;;;;;;;0.55;0.55;;;8.60;99.90;;;;;;4804594;29;20419;-90
2023/01/26 14:29:28;;;;;;;0.60;0.60;;;8.50;99.90;;;;;;4783274;29;20109;-91
2023/01/26 14:31:58;;;;;;;0.50;0.50;;;8.40;99.90;;;;;;4820290;29;20238;-88
2023/01/26 14:34:30;;;;;;;0.57;0.57;;;8.50;99.90;;;;;;4798424;29;20089;-87
2023/01/26 14:37:14;;;;;;;0.60;0.60;;;8.30;99.90;;;;;;4801088;29;20423;-88
2023/01/26 14:39:46;;;;;;;0.52;0.52;;;8.30;99.90;;;;;;4801152;29;20056;-90
2023/01/26 14:42:20;;;;;;;0.60;0.60;;;8.20;99.90;;;;;;4800563;29;20461;-90
2023/01/26 14:44:46;;;;;;;0.60;0.60;;;8.20;99.90;;;;;;4784731;29;20061;-90
2023/01/26 14:47:22;;;;;;;0.57;0.57;;;8.10;99.90;;;;;;4763670;29;20775;-88
2023/01/26 14:49:59;;;;;;;0.60;0.60;;;8.10;99.90;;;;;;4798830;29;20048;-88
2023/01/26 14:52:27;;;;;;;0.60;0.60;;;8.10;99.90;;;;;;4796677;29;20049;-88
2023/01/26 14:54:57;;;;;;;0.60;0.60;;;8.00;99.90;;;;;;4831405;29;20112;-87
2023/01/26 14:57:25;;;;;;;0.60;0.60;;;8.00;99.90;;;;;;4812892;29;20314;-90
2023/01/26 14:59:54;;;;;;;0.50;0.50;;;7.90;99.90;;;;;;4819579;29;20056;-87
2023/01/26 15:02:25;;;;;;;0.60;0.60;;;8.00;99.90;;;;;;4816520;29;20509;-92
2023/01/26 15:04:58;;;;;;;0.60;0.60;;;7.90;99.90;;;;;;4805144;29;20044;-90
2023/01/26 15:07:34;;;;;;;0.60;0.60;;;7.90;99.90;;;;;;4804862;29;20049;-87
2023/01/26 15:10:02;;;;;;;0.50;0.50;;;7.90;99.90;;;;;;4811940;29;20044;-89
2023/01/26 15:12:33;;;;;;;0.60;0.60;;;7.80;99.90;;;;;;4813921;29;20045;-89
2023/01/26 15:15:00;;;;;;;0.60;0.60;;;7.80;99.90;;;;;;4771843;29;20115;-89
2023/01/26 15:17:41;;;;;;;0.60;0.60;;;7.80;99.90;;;;;;4776490;29;20063;-89
2023/01/26 15:20:30;;;;;;;0.60;0.60;;;7.80;99.90;;;;;;4807924;29;20325;-90
2023/01/26 15:22:59;;;;;;;0.60;0.60;;;7.70;99.90;;;;;;4800717;29;20049;-89
2023/01/26 15:25:29;;;;;;;0.60;0.60;;;7.70;99.90;;;;;;4812344;29;20059;-87
2023/01/26 15:28:00;;;;;;;0.60;0.60;;;7.70;99.90;;;;;;4789957;29;20059;-91
2023/01/26 15:30:29;;;;;;;0.60;0.60;;;7.70;99.90;;;;;;4796713;29;20226;-91
2023/01/26 15:32:56;;;;;;;0.60;0.60;;;7.60;99.90;;;;;;4801530;29;20052;-89
2023/01/26 15:35:27;;;;;;;0.60;0.60;;;7.70;99.90;;;;;;4791140;29;20045;-89
2023/01/26 15:38:05;;;;;;;0.60;0.60;;;7.70;99.90;;;;;;4802379;29;20418;-91
2023/01/26 15:40:34;;;;;;;0.60;0.60;;;7.60;99.90;;;;;;4789444;29;20704;-89
2023/01/26 15:43:17;;;;;;;0.60;0.60;;;7.60;99.90;;;;;;4800630;29;20057;-87
2023/01/26 15:45:51;;;;;;;0.60;0.60;;;7.60;99.90;;;;;;4814167;29;20060;-89
2023/01/26 15:48:17;;;;;;;0.60;0.60;;;7.60;99.90;;;;;;4798794;29;20056;-89
2023/01/26 15:50:43;;;;;;;0.60;0.60;;;7.50;99.90;;;;;;4791190;29;20470;-89
2023/01/26 15:53:13;;;;;;;0.60;0.60;;;7.40;99.90;;;;;;4797954;29;20159;-89
2023/01/26 15:55:43;;;;;;;0.60;0.60;;;7.40;99.90;;;;;;4792522;29;20223;-89
2023/01/26 15:58:12;;;;;;;0.60;0.60;;;7.40;99.90;;;;;;4821075;29;20096;-90
2023/01/26 16:00:38;;;;;;;0.60;0.60;;;7.40;99.90;;;;;;4790506;29;20048;-90
2023/01/26 16:03:14;;;;;;;0.60;0.60;;;7.30;99.90;;;;;;4781815;29;20060;-91
2023/01/26 16:05:43;;;;;;;0.60;0.60;;;7.30;99.90;;;;;;4810294;29;20060;-90
2023/01/26 16:08:09;;;;;;;0.60;0.60;;;7.20;99.90;;;;;;4800318;29;20410;-92
2023/01/26 16:10:37;;;;;;;0.60;0.60;;;7.20;99.90;;;;;;4776851;29;20419;-90
2023/01/26 16:13:20;;;;;;;0.70;0.70;;;7.20;99.90;;;;;;4804279;29;20091;-92
2023/01/26 16:15:53;;;;;;;0.60;0.60;;;7.20;99.90;;;;;;4832100;29;20049;-89
2023/01/26 16:18:20;;;;;;;0.60;0.60;;;7.10;99.90;;;;;;4797309;29;20108;-88
2023/01/26 16:20:50;;;;;;;0.60;0.60;;;7.10;99.90;;;;;;4788102;29;20410;-90
2023/01/26 16:23:18;;;;;;;0.60;0.60;;;7.10;99.90;;;;;;4795333;29;20081;-89
2023/01/26 16:25:45;;;;;;;0.60;0.60;;;7.10;99.90;;;;;;4803703;29;20056;-91
2023/01/26 16:28:11;;;;;;;0.70;0.70;;;7.10;99.90;;;;;;4820450;29;20135;-91
2023/01/26 16:30:37;;;;;;;0.60;0.60;;;7.20;99.90;;;;;;4800331;29;20064;-89
2023/01/26 16:33:10;;;;;;;0.60;0.60;;;7.20;99.90;;;;;;4792277;29;20059;-89
2023/01/26 16:35:36;;;;;;;0.60;0.60;;;7.10;99.90;;;;;;4791803;29;20495;-89
2023/01/26 16:38:04;;;;;;;0.60;0.60;;;7.10;99.90;;;;;;4764541;29;20045;-89
2023/01/26 16:40:30;;;;;;;0.60;0.60;;;7.10;99.90;;;;;;4788599;29;20065;-89
2023/01/26 16:43:11;;;;;;;0.60;0.60;;;7.00;99.90;;;;;;4771968;29;20142;-87
2023/01/26 16:45:37;;;;;;;0.60;0.60;;;7.00;99.90;;;;;;4783286;29;20696;-89
2023/01/26 16:48:12;;;;;;;0.60;0.60;;;7.00;99.90;;;;;;4773189;29;20148;-89
2023/01/26 16:50:38;;;;;;;0.60;0.60;;;7.00;99.90;;;;;;4803423;29;20245;-88
2023/01/26 16:53:18;;;;;;;0.60;0.60;;;7.00;99.90;;;;;;4805957;29;20052;-88
2023/01/26 16:55:44;;;;;;;0.60;0.60;;;7.00;99.90;;;;;;4805541;29;20056;-89
2023/01/26 16:58:09;;;;;;;0.75;0.75;;;7.00;99.90;;;;;;4772760;29;20464;-88
2023/01/26 17:00:35;;;;;;;0.70;0.70;;;7.00;99.90;;;;;;4788840;29;20089;-89
2023/01/26 17:03:02;;;;;;;0.60;0.60;;;7.00;99.90;;;;;;4757993;29;20304;-89
2023/01/26 17:05:28;;;;;;;0.60;0.60;;;7.00;99.90;;;;;;4772962;29;20051;-89
2023/01/26 17:07:53;;;;;;;0.60;0.60;;;6.90;99.90;;;;;;4782430;29;20460;-88
2023/01/26 17:10:21;;;;;;;0.70;0.70;;;6.90;99.90;;;;;;4777768;29;20124;-89
2023/01/26 17:12:47;;;;;;;0.60;0.60;;;7.00;99.90;;;;;;4760457;29;20090;-90
2023/01/26 17:15:14;;;;;;;0.60;0.60;;;6.90;99.90;;;;;;4794694;29;20079;-89
2023/01/26 17:17:41;;;;;;;0.60;0.60;;;6.90;99.90;;;;;;4774670;29;21225;-89
2023/01/26 17:20:11;;;;;;;0.70;0.70;;;6.90;99.90;;;;;;4782696;29;20547;-89
2023/01/26 17:22:37;;;;;;;0.70;0.70;;;6.90;99.90;;;;;;4792991;29;20064;-88
2023/01/26 17:25:04;;;;;;;0.60;0.60;;;7.00;99.90;;;;;;4814881;29;20045;-89
2023/01/26 17:27:30;;;;;;;0.60;0.60;;;6.90;99.90;;;;;;4797083;29;20565;-88
2023/01/26 17:29:56;;;;;;;0.60;0.60;;;6.80;99.90;;;;;;4783316;29;20080;-87
2023/01/26 17:32:24;;;;;;;0.60;0.60;;;6.80;99.90;;;;;;4775723;29;20053;-88
2023/01/26 17:34:56;;;;;;;0.60;0.60;;;6.80;99.90;;;;;;4789632;29;20129;-87
2023/01/26 17:37:26;;;;;;;0.60;0.60;;;6.90;99.90;;;;;;4787575;29;20470;-89
2023/01/26 17:39:52;;;;;;;0.63;0.63;;;6.80;99.90;;;;;;4791445;29;20569;-88
2023/01/26 17:42:21;;;;;;;0.70;0.70;;;6.80;99.90;;;;;;4762548;29;20044;-89
2023/01/26 17:44:47;;;;;;;0.65;0.65;;;6.80;99.90;;;;;;4801490;29;20053;-89
2023/01/26 17:47:13;;;;;;;0.60;0.60;;;6.80;99.90;;;;;;4764851;29;20063;-90
2023/01/26 17:49:46;;;;;;;0.60;0.60;;;6.80;99.90;;;;;;4777859;29;20725;-88
2023/01/26 17:52:13;;;;;;;0.60;0.60;;;6.80;99.90;;;;;;4778986;29;20052;-88
2023/01/26 17:54:39;;;;;;;0.60;0.60;;;6.80;99.90;;;;;;4798944;29;20131;-90
2023/01/26 17:57:06;;;;;;;0.60;0.60;;;6.80;99.90;;;;;;4814072;29;20085;-90
2023/01/26 17:59:32;;;;;;;0.63;0.63;;;6.80;99.90;;;;;;4812514;29;20546;-89
2023/01/26 18:01:58;;;;;;;0.60;0.60;;;6.70;99.90;;;;;;4800354;29;20155;-89
2023/01/26 18:04:26;;;;;;;0.60;0.60;;;6.70;99.90;;;;;;4768225;29;20494;-88
2023/01/26 18:06:53;;;;;;;0.65;0.65;;;6.60;99.90;;;;;;4757087;29;20044;-88
2023/01/26 18:09:18;;;;;;;0.60;0.60;;;6.60;99.90;;;;;;4782550;29;20101;-89
2023/01/26 18:11:44;;;;;;;0.60;0.60;;;6.60;99.90;;;;;;4780186;29;20951;-88
2023/01/26 18:14:10;;;;;;;0.68;0.68;;;6.60;99.90;;;;;;4796539;29;20040;-89
2023/01/26 18:16:36;;;;;;;0.60;0.60;;;6.60;99.90;;;;;;4782531;29;20877;-88
2023/01/26 18:19:03;;;;;;;0.70;0.70;;;6.60;99.90;;;;;;4788160;29;20057;-90
2023/01/26 18:21:30;;;;;;;0.68;0.68;;;6.60;99.90;;;;;;4799415;29;20368;-89
2023/01/26 18:24:00;;;;;;;0.60;0.60;;;6.50;99.90;;;;;;4807019;29;20713;-89
2023/01/26 18:26:31;;;;;;;0.60;0.60;;;6.50;99.90;;;;;;4814480;29;20139;-88
2023/01/26 18:28:58;;;;;;;0.68;0.68;;;6.50;99.90;;;;;;4816327;29;20060;-90
2023/01/26 18:31:30;;;;;;;0.60;0.60;;;6.50;99.90;;;;;;4790311;29;20053;-88
2023/01/26 18:33:57;;;;;;;0.60;0.60;;;6.50;99.90;;;;;;4801719;29;20227;-88
2023/01/26 18:36:23;;;;;;;0.70;0.70;;;6.50;99.90;;;;;;4798233;29;20065;-89
2023/01/26 18:38:52;;;;;;;0.70;0.70;;;6.50;99.90;;;;;;4771509;29;20459;-89
2023/01/26 18:41:19;;;;;;;0.70;0.70;;;6.50;99.90;;;;;;4786071;29;20128;-89
2023/01/26 18:43:47;;;;;;;0.70;0.70;;;6.40;99.90;;;;;;4788873;29;20135;-88
2023/01/26 18:46:13;;;;;;;0.70;0.70;;;6.40;99.90;;;;;;4799649;29;20507;-88
2023/01/26 18:48:39;;;;;;;0.60;0.60;;;6.50;99.90;;;;;;4815270;29;20349;-88
2023/01/26 18:51:05;;;;;;;0.65;0.65;;;6.40;99.90;;;;;;4781725;29;20294;-89
2023/01/26 18:53:32;;;;;;;0.70;0.70;;;6.50;99.90;;;;;;4789424;29;21043;-87
2023/01/26 18:56:10;;;;;;;0.70;0.70;;;6.50;99.90;;;;;;4775940;29;20044;-88
2023/01/26 18:58:37;;;;;;;0.60;0.60;;;6.50;99.90;;;;;;4829194;29;20451;-88
2023/01/26 19:01:08;;;;;;;0.65;0.65;;;6.50;99.90;;;;;;4781535;29;20101;-89
2023/01/26 19:03:37;;;;;;;0.60;0.60;;;6.40;99.90;;;;;;4768699;29;20534;-88
2023/01/26 19:06:05;;;;;;;0.60;0.60;;;6.40;99.90;;;;;;4810057;29;20536;-89
2023/01/26 19:08:31;;;;;;;0.65;0.65;;;6.50;99.90;;;;;;4798889;29;20052;-88
2023/01/26 19:11:06;;;;;;;0.60;0.60;;;6.40;99.90;;;;;;4765035;29;20445;-89
2023/01/26 19:13:33;;;;;;;0.60;0.60;;;6.40;99.90;;;;;;4797497;29;20056;-90
2023/01/26 19:16:02;;;;;;;0.60;0.60;;;6.40;99.90;;;;;;4769374;29;20483;-89
2023/01/26 19:18:28;;;;;;;0.65;0.65;;;6.40;99.90;;;;;;4810485;29;20044;-89
2023/01/26 19:20:56;;;;;;;0.70;0.70;;;6.40;99.90;;;;;;4793382;29;20052;-88
2023/01/26 19:23:23;;;;;;;0.60;0.60;;;6.30;99.90;;;;;;4806973;29;20053;-88
2023/01/26 19:25:48;;;;;;;0.68;0.68;;;6.30;99.90;;;;;;4761723;29;20063;-90
2023/01/26 19:28:14;;;;;;;0.60;0.60;;;6.20;99.90;;;;;;4796458;29;20060;-89
2023/01/26 19:30:42;;;;;;;0.60;0.60;;;6.20;99.90;;;;;;4773141;29;20637;-89
2023/01/26 19:33:26;;;;;;;0.70;0.70;;;6.10;99.90;;;;;;4836339;29;20064;-88
2023/01/26 19:35:53;;;;;;;0.70;0.70;;;6.10;99.90;;;;;;4805068;29;20136;-88
2023/01/26 19:38:20;;;;;;;0.65;0.65;;;5.90;99.90;;;;;;4801337;29;20085;-89
2023/01/26 19:40:48;;;;;;;0.70;0.70;;;5.90;99.90;;;;;;4794902;29;20045;-89
2023/01/26 19:43:15;;;;;;;0.70;0.70;;;5.80;99.90;;;;;;4801163;29;20048;-88
2023/01/26 19:45:47;;;;;;;0.70;0.70;;;5.80;99.90;;;;;;4793381;29;20056;-88
2023/01/26 19:48:16;;;;;;;0.60;0.60;;;5.60;99.90;;;;;;4785951;29;20052;-89
2023/01/26 19:51:03;;;;;;;0.70;0.70;;;5.60;99.90;;;;;;4774706;29;20768;-90
2023/01/26 19:53:34;;;;;;;0.70;0.70;;;5.50;99.90;;;;;;4781088;29;20068;-89
2023/01/26 19:56:06;;;;;;;0.68;0.68;;;5.30;99.90;;;;;;4781190;29;20922;-90
2023/01/26 19:58:35;;;;;;;0.63;0.63;;;5.30;99.90;;;;;;4787646;29;20645;-90
2023/01/26 20:01:09;;;;;;;0.60;0.60;;;5.20;99.90;;;;;;4783748;29;20605;-90
2023/01/26 20:03:35;;;;;;;0.70;0.70;;;5.10;99.90;;;;;;4778772;29;20050;-90
2023/01/26 20:06:04;;;;;;;0.60;0.60;;;5.00;99.90;;;;;;4743069;29;20799;-90
2023/01/26 20:08:31;;;;;;;0.60;0.60;;;5.00;99.90;;;;;;4799780;29;20037;-88
2023/01/26 20:11:07;;;;;;;0.70;0.70;;;5.00;99.90;;;;;;4795976;29;20061;-90
2023/01/26 20:13:34;;;;;;;0.70;0.70;;;5.00;99.90;;;;;;4777092;29;20057;-89
2023/01/26 20:16:07;;;;;;;0.60;0.60;;;5.00;99.90;;;;;;4769150;29;20041;-90
2023/01/26 20:18:35;;;;;;;0.70;0.70;;;4.90;99.90;;;;;;4772759;29;20111;-89
2023/01/26 20:21:02;;;;;;;0.70;0.70;;;5.00;99.90;;;;;;4785134;29;20048;-91
2023/01/26 20:23:28;;;;;;;0.60;0.60;;;5.10;99.90;;;;;;4754976;29;20080;-90
2023/01/26 20:26:03;;;;;;;0.60;0.60;;;5.00;99.90;;;;;;4771306;29;20107;-90
2023/01/26 20:28:29;;;;;;;0.65;0.65;;;5.10;99.90;;;;;;4786378;29;20143;-89
2023/01/26 20:31:02;;;;;;;0.70;0.70;;;5.20;99.90;;;;;;4750708;29;20286;-89
2023/01/26 20:33:28;;;;;;;0.60;0.60;;;5.20;99.90;;;;;;4786828;29;20155;-89
2023/01/26 20:35:54;;;;;;;0.70;0.70;;;5.30;99.90;;;;;;4774421;29;20324;-90
2023/01/26 20:38:19;;;;;;;0.70;0.70;;;5.30;99.90;;;;;;4761981;29;21000;-91
2023/01/26 20:40:45;;;;;;;0.70;0.70;;;5.40;99.90;;;;;;4793314;29;20116;-88
2023/01/26 20:43:11;;;;;;;0.70;0.70;;;5.40;99.90;;;;;;4783083;29;20546;-90
2023/01/26 20:45:43;;;;;;;0.70;0.70;;;5.30;99.90;;;;;;4796455;29;20214;-90
2023/01/26 20:48:09;;;;;;;0.60;0.60;;;5.40;99.90;;;;;;4793507;29;21270;-90
2023/01/26 20:50:38;;;;;;;0.70;0.70;;;5.40;99.90;;;;;;4794692;29;20053;-90
2023/01/26 20:53:08;;;;;;;0.60;0.60;;;5.40;99.90;;;;;;4789627;29;20077;-91
2023/01/26 20:55:34;;;;;;;0.70;0.70;;;5.40;99.90;;;;;;4779168;29;20146;-90
2023/01/26 20:58:04;;;;;;;0.60;0.60;;;5.30;99.90;;;;;;4793975;29;20107;-90
2023/01/26 21:00:32;;;;;;;0.65;0.65;;;5.40;99.90;;;;;;4774727;29;20144;-91
2023/01/26 21:02:58;;;;;;;0.70;0.70;;;5.40;99.90;;;;;;4801000;29;20132;-91
2023/01/26 21:05:27;;;;;;;0.70;0.70;;;5.30;99.90;;;;;;4796452;29;20060;-90
2023/01/26 21:07:53;;;;;;;0.68;0.68;;;5.30;99.90;;;;;;4768928;29;20421;-89
2023/01/26 21:10:19;;;;;;;0.60;0.60;;;5.40;99.90;;;;;;4774878;29;20037;-90
2023/01/26 21:12:54;;;;;;;0.60;0.60;;;5.40;99.90;;;;;;4776426;29;21323;-89